sensor_id;sensor_type;location;lat;lon;timestamp;pressure;altitude;pressure_sealevel;temperature;humidity
49827;BME280;35715;51.570;6.036;2023-05-09T00:00:52;101662.28;;;17.99;90.00
49827;BME280;35715;51.570;6.036;2023-05-09T00:03:17;101655.28;;;17.98;90.55
49827;BME280;35715;51.570;6.036;2023-05-09T00:05:43;101657.06;;;17.99;90.93
49827;BME280;35715;51.570;6.036;2023-05-09T00:11:00;101647.34;;;17.96;90.51
49827;BME280;35715;51.570;6.036;2023-05-09T00:13:26;101637.50;;;17.90;89.89
49827;BME280;35715;51.570;6.036;2023-05-09T00:15:55;101625.97;;;17.87;89.94
49827;BME280;35715;51.570;6.036;2023-05-09T00:18:21;101623.22;;;17.84;90.49
49827;BME280;35715;51.570;6.036;2023-05-09T00:20:49;101624.91;;;17.83;91.51
49827;BME280;35715;51.570;6.036;2023-05-09T00:23:14;101619.69;;;17.83;91.51
49827;BME280;35715;51.570;6.036;2023-05-09T00:25:40;101615.16;;;17.79;90.75
49827;BME280;35715;51.570;6.036;2023-05-09T00:28:06;101616.84;;;17.79;91.03
49827;BME280;35715;51.570;6.036;2023-05-09T00:30:31;101614.22;;;17.79;92.88
49827;BME280;35715;51.570;6.036;2023-05-09T00:32:57;101612.53;;;17.79;91.84
49827;BME280;35715;51.570;6.036;2023-05-09T00:35:23;101613.44;;;17.80;92.54
49827;BME280;35715;51.570;6.036;2023-05-09T00:37:48;101610.16;;;17.84;92.45
49827;BME280;35715;51.570;6.036;2023-05-09T00:40:15;101610.25;;;17.85;92.34
49827;BME280;35715;51.570;6.036;2023-05-09T00:42:41;101606.78;;;17.86;92.57
49827;BME280;35715;51.570;6.036;2023-05-09T00:45:08;101608.59;;;17.87;92.29
49827;BME280;35715;51.570;6.036;2023-05-09T00:47:34;101598.25;;;17.89;91.86
49827;BME280;35715;51.570;6.036;2023-05-09T00:50:00;101607.78;;;17.88;91.13
49827;BME280;35715;51.570;6.036;2023-05-09T00:58:27;101592.78;;;17.84;90.53
49827;BME280;35715;51.570;6.036;2023-05-09T01:00:52;101594.50;;;17.84;91.46
49827;BME280;35715;51.570;6.036;2023-05-09T01:06:05;101584.94;;;17.84;91.37
49827;BME280;35715;51.570;6.036;2023-05-09T01:11:16;101570.00;;;17.82;92.08
49827;BME280;35715;51.570;6.036;2023-05-09T01:14:01;101568.31;;;17.82;92.97
49827;BME280;35715;51.570;6.036;2023-05-09T01:22:15;101565.72;;;17.82;92.47
49827;BME280;35715;51.570;6.036;2023-05-09T01:24:53;101563.09;;;17.82;91.59
49827;BME280;35715;51.570;6.036;2023-05-09T01:30:15;101554.41;;;17.83;90.53
49827;BME280;35715;51.570;6.036;2023-05-09T01:32:50;101553.63;;;17.84;91.56
49827;BME280;35715;51.570;6.036;2023-05-09T01:35:16;101549.34;;;17.86;91.78
49827;BME280;35715;51.570;6.036;2023-05-09T01:37:42;101543.25;;;17.86;91.66
49827;BME280;35715;51.570;6.036;2023-05-09T01:40:18;101550.19;;;17.85;92.40
49827;BME280;35715;51.570;6.036;2023-05-09T01:45:17;101548.41;;;17.84;91.23
49827;BME280;35715;51.570;6.036;2023-05-09T01:47:46;101543.97;;;17.83;90.72
49827;BME280;35715;51.570;6.036;2023-05-09T01:50:14;101543.09;;;17.83;91.50
49827;BME280;35715;51.570;6.036;2023-05-09T01:52:40;101551.81;;;17.83;91.66
49827;BME280;35715;51.570;6.036;2023-05-09T01:55:07;101542.28;;;17.84;91.48
49827;BME280;35715;51.570;6.036;2023-05-09T01:57:34;101535.19;;;17.81;90.71
49827;BME280;35715;51.570;6.036;2023-05-09T02:00:00;101532.34;;;17.77;90.10
49827;BME280;35715;51.570;6.036;2023-05-09T02:02:29;101528.63;;;17.71;89.88
49827;BME280;35715;51.570;6.036;2023-05-09T02:04:55;101539.66;;;17.66;89.25
49827;BME280;35715;51.570;6.036;2023-05-09T02:07:22;101531.53;;;17.60;88.85
49827;BME280;35715;51.570;6.036;2023-05-09T02:09:48;101524.34;;;17.55;89.14
49827;BME280;35715;51.570;6.036;2023-05-09T02:12:15;101524.28;;;17.54;88.54
49827;BME280;35715;51.570;6.036;2023-05-09T02:14:41;101523.53;;;17.56;89.11
49827;BME280;35715;51.570;6.036;2023-05-09T02:17:06;101523.63;;;17.58;89.25
49827;BME280;35715;51.570;6.036;2023-05-09T02:19:36;101530.75;;;17.62;90.26
49827;BME280;35715;51.570;6.036;2023-05-09T02:22:17;101524.66;;;17.62;90.15
49827;BME280;35715;51.570;6.036;2023-05-09T02:24:42;101528.16;;;17.62;89.71
49827;BME280;35715;51.570;6.036;2023-05-09T02:27:09;101521.81;;;17.57;89.97
49827;BME280;35715;51.570;6.036;2023-05-09T02:29:36;101515.34;;;17.49;89.50
49827;BME280;35715;51.570;6.036;2023-05-09T02:32:19;101527.22;;;17.44;89.75
49827;BME280;35715;51.570;6.036;2023-05-09T02:34:46;101529.25;;;17.49;89.73
49827;BME280;35715;51.570;6.036;2023-05-09T02:37:14;101518.91;;;17.51;89.79
49827;BME280;35715;51.570;6.036;2023-05-09T02:39:47;101525.78;;;17.49;89.22
49827;BME280;35715;51.570;6.036;2023-05-09T02:44:56;101517.72;;;17.44;89.64
49827;BME280;35715;51.570;6.036;2023-05-09T02:47:23;101518.44;;;17.42;89.53
49827;BME280;35715;51.570;6.036;2023-05-09T02:49:50;101514.09;;;17.42;89.83
49827;BME280;35715;51.570;6.036;2023-05-09T02:52:17;101518.53;;;17.43;89.49
49827;BME280;35715;51.570;6.036;2023-05-09T02:54:43;101516.78;;;17.44;89.54
49827;BME280;35715;51.570;6.036;2023-05-09T02:57:09;101511.56;;;17.44;89.71
49827;BME280;35715;51.570;6.036;2023-05-09T02:59:34;101514.03;;;17.41;89.58
49827;BME280;35715;51.570;6.036;2023-05-09T03:01:59;101504.25;;;17.36;89.37
49827;BME280;35715;51.570;6.036;2023-05-09T03:04:27;101501.66;;;17.36;88.82
49827;BME280;35715;51.570;6.036;2023-05-09T03:06:59;101499.66;;;17.31;88.87
49827;BME280;35715;51.570;6.036;2023-05-09T03:09:27;101493.59;;;17.32;89.04
49827;BME280;35715;51.570;6.036;2023-05-09T03:11:53;101490.97;;;17.32;88.91
49827;BME280;35715;51.570;6.036;2023-05-09T03:14:18;101490.97;;;17.32;89.07
49827;BME280;35715;51.570;6.036;2023-05-09T03:16:44;101489.06;;;17.28;89.10
49827;BME280;35715;51.570;6.036;2023-05-09T03:19:09;101489.13;;;17.29;89.08
49827;BME280;35715;51.570;6.036;2023-05-09T03:21:34;101489.13;;;17.29;88.63
49827;BME280;35715;51.570;6.036;2023-05-09T03:24:00;101484.41;;;17.22;88.54
49827;BME280;35715;51.570;6.036;2023-05-09T03:26:25;101474.72;;;17.19;88.49
49827;BME280;35715;51.570;6.036;2023-05-09T03:28:51;101480.69;;;17.17;88.64
49827;BME280;35715;51.570;6.036;2023-05-09T03:31:16;101474.56;;;17.16;88.72
49827;BME280;35715;51.570;6.036;2023-05-09T03:36:26;101472.03;;;17.18;88.63
49827;BME280;35715;51.570;6.036;2023-05-09T03:38:52;101469.25;;;17.15;88.94
49827;BME280;35715;51.570;6.036;2023-05-09T03:43:52;101460.41;;;17.11;88.91
49827;BME280;35715;51.570;6.036;2023-05-09T03:46:19;101463.81;;;17.10;89.08
49827;BME280;35715;51.570;6.036;2023-05-09T03:48:44;101460.31;;;17.10;89.13
49827;BME280;35715;51.570;6.036;2023-05-09T03:51:09;101456.06;;;17.12;88.99
49827;BME280;35715;51.570;6.036;2023-05-09T03:53:44;101457.72;;;17.10;88.80
49827;BME280;35715;51.570;6.036;2023-05-09T03:56:10;101450.41;;;17.02;89.21
49827;BME280;35715;51.570;6.036;2023-05-09T03:58:35;101448.50;;;17.00;89.62
49827;BME280;35715;51.570;6.036;2023-05-09T04:01:00;101451.13;;;17.00;90.02
49827;BME280;35715;51.570;6.036;2023-05-09T04:03:27;101444.94;;;16.98;90.01
49827;BME280;35715;51.570;6.036;2023-05-09T04:06:12;101449.34;;;16.99;90.00
49827;BME280;35715;51.570;6.036;2023-05-09T04:08:38;101448.22;;;16.94;89.73
49827;BME280;35715;51.570;6.036;2023-05-09T04:11:03;101455.78;;;16.89;89.68
49827;BME280;35715;51.570;6.036;2023-05-09T04:16:01;101442.75;;;16.89;89.37
49827;BME280;35715;51.570;6.036;2023-05-09T04:18:26;101436.47;;;16.85;89.34
49827;BME280;35715;51.570;6.036;2023-05-09T04:20:51;101447.63;;;16.83;89.28
49827;BME280;35715;51.570;6.036;2023-05-09T04:23:18;101445.97;;;16.85;89.77
49827;BME280;35715;51.570;6.036;2023-05-09T04:25:53;101448.81;;;16.88;88.91
49827;BME280;35715;51.570;6.036;2023-05-09T04:28:20;101441.69;;;16.85;88.71
49827;BME280;35715;51.570;6.036;2023-05-09T04:30:46;101449.25;;;16.81;88.50
49827;BME280;35715;51.570;6.036;2023-05-09T04:33:13;101449.09;;;16.78;88.01
49827;BME280;35715;51.570;6.036;2023-05-09T04:35:39;101447.94;;;16.73;88.31
49827;BME280;35715;51.570;6.036;2023-05-09T04:38:08;101446.09;;;16.70;88.35
49827;BME280;35715;51.570;6.036;2023-05-09T04:40:33;101434.13;;;16.74;88.40
49827;BME280;35715;51.570;6.036;2023-05-09T04:42:59;101434.28;;;16.77;88.29
49827;BME280;35715;51.570;6.036;2023-05-09T04:45:27;101432.63;;;16.79;88.24
49827;BME280;35715;51.570;6.036;2023-05-09T04:47:56;101430.34;;;16.85;88.47
49827;BME280;35715;51.570;6.036;2023-05-09T04:50:27;101425.28;;;16.87;87.96
49827;BME280;35715;51.570;6.036;2023-05-09T04:52:55;101421.72;;;16.86;88.02
49827;BME280;35715;51.570;6.036;2023-05-09T04:55:21;101421.03;;;16.89;88.49
49827;BME280;35715;51.570;6.036;2023-05-09T04:57:52;101411.22;;;16.84;88.21
49827;BME280;35715;51.570;6.036;2023-05-09T05:00:18;101413.00;;;16.85;88.53
49827;BME280;35715;51.570;6.036;2023-05-09T05:02:55;101408.78;;;16.88;88.60
49827;BME280;35715;51.570;6.036;2023-05-09T05:05:21;101406.41;;;16.92;88.45
49827;BME280;35715;51.570;6.036;2023-05-09T05:07:46;101397.63;;;16.90;88.41
49827;BME280;35715;51.570;6.036;2023-05-09T05:10:11;101392.28;;;16.87;88.70
49827;BME280;35715;51.570;6.036;2023-05-09T05:12:37;101389.81;;;16.90;88.74
49827;BME280;35715;51.570;6.036;2023-05-09T05:15:03;101387.59;;;16.98;88.03
49827;BME280;35715;51.570;6.036;2023-05-09T05:17:28;101390.50;;;17.04;88.03
49827;BME280;35715;51.570;6.036;2023-05-09T05:19:54;101385.81;;;17.15;87.74
49827;BME280;35715;51.570;6.036;2023-05-09T05:22:29;101389.28;;;17.14;87.39
49827;BME280;35715;51.570;6.036;2023-05-09T05:24:54;101390.59;;;17.24;87.50
49827;BME280;35715;51.570;6.036;2023-05-09T05:27:20;101384.19;;;17.35;87.20
49827;BME280;35715;51.570;6.036;2023-05-09T05:29:45;101385.31;;;17.40;86.87
49827;BME280;35715;51.570;6.036;2023-05-09T05:32:12;101382.72;;;17.40;86.69
49827;BME280;35715;51.570;6.036;2023-05-09T05:34:37;101375.03;;;17.43;86.68
49827;BME280;35715;51.570;6.036;2023-05-09T05:37:03;101374.22;;;17.44;86.96
49827;BME280;35715;51.570;6.036;2023-05-09T05:39:28;101370.84;;;17.47;86.64
49827;BME280;35715;51.570;6.036;2023-05-09T05:42:05;101362.88;;;17.44;87.11
49827;BME280;35715;51.570;6.036;2023-05-09T05:44:30;101369.00;;;17.44;86.96
49827;BME280;35715;51.570;6.036;2023-05-09T05:46:57;101357.66;;;17.44;87.13
49827;BME280;35715;51.570;6.036;2023-05-09T05:49:23;101365.03;;;17.52;87.35
49827;BME280;35715;51.570;6.036;2023-05-09T05:51:59;101361.91;;;17.60;87.22
49827;BME280;35715;51.570;6.036;2023-05-09T05:54:36;101358.59;;;17.64;87.05
49827;BME280;35715;51.570;6.036;2023-05-09T05:57:02;101358.44;;;17.61;86.62
49827;BME280;35715;51.570;6.036;2023-05-09T05:59:32;101343.28;;;17.52;86.85
49827;BME280;35715;51.570;6.036;2023-05-09T06:01:59;101343.34;;;17.53;87.28
49827;BME280;35715;51.570;6.036;2023-05-09T06:04:26;101346.03;;;17.55;87.02
49827;BME280;35715;51.570;6.036;2023-05-09T06:06:52;101343.72;;;17.61;87.16
49827;BME280;35715;51.570;6.036;2023-05-09T06:09:18;101339.97;;;17.56;86.41
49827;BME280;35715;51.570;6.036;2023-05-09T06:11:43;101339.03;;;17.54;87.05
49827;BME280;35715;51.570;6.036;2023-05-09T06:16:38;101335.81;;;17.60;87.12
49827;BME280;35715;51.570;6.036;2023-05-09T06:19:04;101331.03;;;17.69;87.06
49827;BME280;35715;51.570;6.036;2023-05-09T06:21:30;101325.88;;;17.70;86.75
49827;BME280;35715;51.570;6.036;2023-05-09T06:23:56;101316.03;;;17.65;86.60
49827;BME280;35715;51.570;6.036;2023-05-09T06:26:22;101321.53;;;17.71;86.91
49827;BME280;35715;51.570;6.036;2023-05-09T06:28:47;101315.63;;;17.75;87.17
49827;BME280;35715;51.570;6.036;2023-05-09T06:31:12;101314.47;;;17.88;86.53
49827;BME280;35715;51.570;6.036;2023-05-09T06:36:08;101314.03;;;17.97;85.48
49827;BME280;35715;51.570;6.036;2023-05-09T06:38:33;101306.53;;;18.04;84.79
49827;BME280;35715;51.570;6.036;2023-05-09T06:40:59;101304.19;;;18.11;84.67
49827;BME280;35715;51.570;6.036;2023-05-09T06:43:26;101293.00;;;18.13;84.25
49827;BME280;35715;51.570;6.036;2023-05-09T06:45:51;101297.63;;;18.19;84.57
49827;BME280;35715;51.570;6.036;2023-05-09T06:48:16;101298.44;;;18.18;84.00
49827;BME280;35715;51.570;6.036;2023-05-09T06:50:42;101301.09;;;18.19;83.98
49827;BME280;35715;51.570;6.036;2023-05-09T06:53:19;101288.97;;;18.20;84.12
49827;BME280;35715;51.570;6.036;2023-05-09T06:55:44;101292.84;;;18.30;83.36
49827;BME280;35715;51.570;6.036;2023-05-09T06:58:10;101288.03;;;18.39;82.74
49827;BME280;35715;51.570;6.036;2023-05-09T07:00:36;101288.16;;;18.42;82.12
49827;BME280;35715;51.570;6.036;2023-05-09T07:05:32;101274.34;;;18.44;80.65
49827;BME280;35715;51.570;6.036;2023-05-09T07:07:57;101259.53;;;18.66;80.29
49827;BME280;35715;51.570;6.036;2023-05-09T07:10:22;101258.81;;;18.90;80.20
49827;BME280;35715;51.570;6.036;2023-05-09T07:12:59;101260.41;;;19.09;77.82
49827;BME280;35715;51.570;6.036;2023-05-09T07:15:24;101261.81;;;19.44;76.66
49827;BME280;35715;51.570;6.036;2023-05-09T07:17:49;101257.53;;;19.71;75.36
49827;BME280;35715;51.570;6.036;2023-05-09T07:20:14;101256.00;;;19.76;72.26
49827;BME280;35715;51.570;6.036;2023-05-09T07:22:45;101249.03;;;19.76;72.71
49827;BME280;35715;51.570;6.036;2023-05-09T07:25:10;101256.91;;;20.00;72.20
49827;BME280;35715;51.570;6.036;2023-05-09T07:27:35;101246.69;;;20.08;73.35
49827;BME280;35715;51.570;6.036;2023-05-09T07:30:02;101250.34;;;20.13;72.45
49827;BME280;35715;51.570;6.036;2023-05-09T07:34:57;101241.25;;;20.28;73.91
49827;BME280;35715;51.570;6.036;2023-05-09T07:37:22;101240.50;;;20.30;72.90
49827;BME280;35715;51.570;6.036;2023-05-09T07:39:48;101230.94;;;20.32;72.65
49827;BME280;35715;51.570;6.036;2023-05-09T07:42:17;101235.56;;;20.14;71.71
49827;BME280;35715;51.570;6.036;2023-05-09T07:44:42;101227.69;;;20.14;73.17
49827;BME280;35715;51.570;6.036;2023-05-09T07:47:08;101230.38;;;20.15;71.56
49827;BME280;35715;51.570;6.036;2023-05-09T07:49:33;101226.25;;;19.98;71.10
49827;BME280;35715;51.570;6.036;2023-05-09T07:51:59;101222.81;;;19.99;71.82
49827;BME280;35715;51.570;6.036;2023-05-09T07:54:25;101218.22;;;19.93;71.39
49827;BME280;35715;51.570;6.036;2023-05-09T07:56:51;101217.19;;;19.88;70.91
49827;BME280;35715;51.570;6.036;2023-05-09T07:59:17;101211.09;;;19.89;71.03
49827;BME280;35715;51.570;6.036;2023-05-09T08:01:42;101210.88;;;19.83;71.51
49827;BME280;35715;51.570;6.036;2023-05-09T08:04:15;101205.13;;;19.93;71.37
49827;BME280;35715;51.570;6.036;2023-05-09T08:06:40;101207.25;;;20.03;72.07
49827;BME280;35715;51.570;6.036;2023-05-09T08:09:05;101204.88;;;20.11;72.55
49827;BME280;35715;51.570;6.036;2023-05-09T08:11:34;101195.13;;;20.07;72.60
49827;BME280;35715;51.570;6.036;2023-05-09T08:16:37;101188.75;;;20.25;72.84
49827;BME280;35715;51.570;6.036;2023-05-09T08:19:02;101189.44;;;20.19;70.55
49827;BME280;35715;51.570;6.036;2023-05-09T08:21:28;101187.59;;;20.16;70.85
49827;BME280;35715;51.570;6.036;2023-05-09T08:24:04;101175.09;;;20.08;71.65
49827;BME280;35715;51.570;6.036;2023-05-09T08:26:32;101171.34;;;20.01;72.45
49827;BME280;35715;51.570;6.036;2023-05-09T08:28:57;101169.28;;;19.92;73.30
49827;BME280;35715;51.570;6.036;2023-05-09T08:31:22;101170.00;;;19.87;72.98
49827;BME280;35715;51.570;6.036;2023-05-09T08:33:52;101165.53;;;19.84;72.07
49827;BME280;35715;51.570;6.036;2023-05-09T08:36:17;101167.75;;;19.73;71.86
49827;BME280;35715;51.570;6.036;2023-05-09T08:38:42;101166.41;;;19.60;72.58
49827;BME280;35715;51.570;6.036;2023-05-09T08:41:07;101165.53;;;19.60;73.55
49827;BME280;35715;51.570;6.036;2023-05-09T08:46:06;101159.31;;;19.56;74.64
49827;BME280;35715;51.570;6.036;2023-05-09T08:48:33;101160.28;;;19.60;74.17
49827;BME280;35715;51.570;6.036;2023-05-09T08:51:01;101154.19;;;19.59;73.64
49827;BME280;35715;51.570;6.036;2023-05-09T08:53:28;101155.16;;;19.63;74.64
49827;BME280;35715;51.570;6.036;2023-05-09T08:55:54;101151.97;;;19.72;74.98
49827;BME280;35715;51.570;6.036;2023-05-09T08:58:19;101149.38;;;19.72;74.16
49827;BME280;35715;51.570;6.036;2023-05-09T09:00:46;101151.06;;;19.71;74.30
49827;BME280;35715;51.570;6.036;2023-05-09T09:03:14;101151.78;;;19.65;74.00
49827;BME280;35715;51.570;6.036;2023-05-09T09:05:40;101157.78;;;19.63;72.99
49827;BME280;35715;51.570;6.036;2023-05-09T09:08:06;101147.25;;;19.61;73.53
49827;BME280;35715;51.570;6.036;2023-05-09T09:10:31;101146.53;;;19.65;73.31
49827;BME280;35715;51.570;6.036;2023-05-09T09:12:58;101149.25;;;19.68;73.45
49827;BME280;35715;51.570;6.036;2023-05-09T09:15:23;101144.91;;;19.69;73.14
49827;BME280;35715;51.570;6.036;2023-05-09T09:17:50;101147.38;;;19.64;72.96
49827;BME280;35715;51.570;6.036;2023-05-09T09:20:20;101140.06;;;19.56;71.37
49827;BME280;35715;51.570;6.036;2023-05-09T09:22:47;101146.88;;;19.50;72.68
49827;BME280;35715;51.570;6.036;2023-05-09T09:25:14;101135.44;;;19.48;72.20
49827;BME280;35715;51.570;6.036;2023-05-09T09:27:39;101138.09;;;19.74;72.76
49827;BME280;35715;51.570;6.036;2023-05-09T09:30:09;101134.38;;;19.92;71.96
49827;BME280;35715;51.570;6.036;2023-05-09T09:32:35;101126.09;;;20.05;70.74
49827;BME280;35715;51.570;6.036;2023-05-09T09:35:07;101122.84;;;20.39;71.43
49827;BME280;35715;51.570;6.036;2023-05-09T09:37:33;101125.75;;;20.76;71.16
49827;BME280;35715;51.570;6.036;2023-05-09T09:39:59;101125.91;;;20.81;68.88
49827;BME280;35715;51.570;6.036;2023-05-09T09:42:24;101122.28;;;20.77;68.28
49827;BME280;35715;51.570;6.036;2023-05-09T09:44:54;101121.53;;;20.81;69.36
49827;BME280;35715;51.570;6.036;2023-05-09T09:47:20;101119.91;;;20.85;69.08
49827;BME280;35715;51.570;6.036;2023-05-09T09:49:54;101115.03;;;20.97;69.23
49827;BME280;35715;51.570;6.036;2023-05-09T09:52:22;101113.41;;;21.02;68.36
49827;BME280;35715;51.570;6.036;2023-05-09T09:54:50;101105.38;;;20.96;68.21
49827;BME280;35715;51.570;6.036;2023-05-09T09:57:34;101103.41;;;20.89;68.40
49827;BME280;35715;51.570;6.036;2023-05-09T10:00:04;101099.13;;;20.91;68.75
49827;BME280;35715;51.570;6.036;2023-05-09T10:02:30;101106.19;;;20.95;67.42
49827;BME280;35715;51.570;6.036;2023-05-09T10:04:55;101102.13;;;21.05;66.92
49827;BME280;35715;51.570;6.036;2023-05-09T10:07:21;101099.41;;;21.02;66.12
49827;BME280;35715;51.570;6.036;2023-05-09T10:09:47;101095.97;;;21.04;67.52
49827;BME280;35715;51.570;6.036;2023-05-09T10:12:13;101090.56;;;20.98;67.83
49827;BME280;35715;51.570;6.036;2023-05-09T10:14:42;101091.50;;;21.00;68.51
49827;BME280;35715;51.570;6.036;2023-05-09T10:17:10;101088.72;;;20.94;67.84
49827;BME280;35715;51.570;6.036;2023-05-09T10:19:37;101090.41;;;20.94;67.11
49827;BME280;35715;51.570;6.036;2023-05-09T10:22:07;101090.84;;;20.79;65.64
49827;BME280;35715;51.570;6.036;2023-05-09T10:24:34;101084.72;;;20.78;67.24
49827;BME280;35715;51.570;6.036;2023-05-09T10:27:05;101085.81;;;20.85;66.39
49827;BME280;35715;51.570;6.036;2023-05-09T10:29:34;101091.75;;;20.79;66.81
49827;BME280;35715;51.570;6.036;2023-05-09T10:32:01;101084.94;;;20.86;67.15
49827;BME280;35715;51.570;6.036;2023-05-09T10:34:30;101079.50;;;20.78;65.83
49827;BME280;35715;51.570;6.036;2023-05-09T10:36:58;101074.97;;;20.74;65.79
49827;BME280;35715;51.570;6.036;2023-05-09T10:39:24;101071.78;;;20.84;66.76
49827;BME280;35715;51.570;6.036;2023-05-09T10:41:50;101067.81;;;20.97;67.01
49827;BME280;35715;51.570;6.036;2023-05-09T10:44:16;101068.66;;;20.96;66.87
49827;BME280;35715;51.570;6.036;2023-05-09T10:46:41;101068.47;;;20.90;67.01
49827;BME280;35715;51.570;6.036;2023-05-09T10:49:06;101071.53;;;20.75;65.96
49827;BME280;35715;51.570;6.036;2023-05-09T10:51:32;101064.09;;;20.62;66.06
49827;BME280;35715;51.570;6.036;2023-05-09T10:53:57;101067.72;;;20.36;66.06
49827;BME280;35715;51.570;6.036;2023-05-09T10:56:30;101070.09;;;20.29;66.76
49827;BME280;35715;51.570;6.036;2023-05-09T10:58:59;101061.59;;;20.09;67.13
49827;BME280;35715;51.570;6.036;2023-05-09T11:03:54;101051.19;;;19.84;69.01
49827;BME280;35715;51.570;6.036;2023-05-09T11:11:50;101062.13;;;19.73;71.30
49827;BME280;35715;51.570;6.036;2023-05-09T11:14:31;101059.38;;;19.69;72.36
49827;BME280;35715;51.570;6.036;2023-05-09T11:17:04;101039.00;;;19.59;72.28
49827;BME280;35715;51.570;6.036;2023-05-09T11:25:02;101028.13;;;19.74;73.28
49827;BME280;35715;51.570;6.036;2023-05-09T11:27:28;101032.91;;;19.86;73.54
49827;BME280;35715;51.570;6.036;2023-05-09T11:29:59;101026.22;;;19.94;72.97
49827;BME280;35715;51.570;6.036;2023-05-09T11:35:23;101026.69;;;20.10;73.55
49827;BME280;35715;51.570;6.036;2023-05-09T11:38:00;101025.63;;;20.03;73.20
49827;BME280;35715;51.570;6.036;2023-05-09T11:40:26;101013.28;;;19.99;73.74
49827;BME280;35715;51.570;6.036;2023-05-09T11:42:53;101010.31;;;19.88;74.04
49827;BME280;35715;51.570;6.036;2023-05-09T11:45:19;101004.00;;;19.83;74.53
49827;BME280;35715;51.570;6.036;2023-05-09T11:47:45;101007.09;;;19.71;74.81
49827;BME280;35715;51.570;6.036;2023-05-09T11:50:11;101011.03;;;19.58;75.39
49827;BME280;35715;51.570;6.036;2023-05-09T11:52:38;101005.44;;;19.47;76.08
49827;BME280;35715;51.570;6.036;2023-05-09T11:55:07;101002.81;;;19.47;76.57
49827;BME280;35715;51.570;6.036;2023-05-09T11:57:33;100995.06;;;19.50;77.00
49827;BME280;35715;51.570;6.036;2023-05-09T11:59:58;100997.94;;;19.58;77.25
49827;BME280;35715;51.570;6.036;2023-05-09T12:02:24;100988.22;;;19.54;78.05
49827;BME280;35715;51.570;6.036;2023-05-09T12:04:50;100991.88;;;19.59;77.72
49827;BME280;35715;51.570;6.036;2023-05-09T12:07:15;100984.03;;;19.59;78.18
49827;BME280;35715;51.570;6.036;2023-05-09T12:09:41;100987.31;;;19.54;77.85
49827;BME280;35715;51.570;6.036;2023-05-09T12:12:11;100987.31;;;19.54;78.23
49827;BME280;35715;51.570;6.036;2023-05-09T12:14:37;100988.25;;;19.56;78.13
49827;BME280;35715;51.570;6.036;2023-05-09T12:17:03;100984.88;;;19.58;78.84
49827;BME280;35715;51.570;6.036;2023-05-09T12:19:28;100981.31;;;19.56;79.12
49827;BME280;35715;51.570;6.036;2023-05-09T12:21:54;100982.25;;;19.58;78.92
49827;BME280;35715;51.570;6.036;2023-05-09T12:24:20;100974.16;;;19.50;79.99
49827;BME280;35715;51.570;6.036;2023-05-09T12:26:46;100973.75;;;19.38;78.90
49827;BME280;35715;51.570;6.036;2023-05-09T12:29:11;100976.81;;;19.26;79.41
49827;BME280;35715;51.570;6.036;2023-05-09T12:31:37;100972.19;;;19.19;79.80
49827;BME280;35715;51.570;6.036;2023-05-09T12:34:11;100976.91;;;19.04;79.78
49827;BME280;35715;51.570;6.036;2023-05-09T12:36:37;100970.50;;;18.95;80.54
49827;BME280;35715;51.570;6.036;2023-05-09T12:39:07;100971.19;;;18.90;81.57
49827;BME280;35715;51.570;6.036;2023-05-09T12:41:33;100967.16;;;19.00;82.00
49827;BME280;35715;51.570;6.036;2023-05-09T12:46:27;100965.66;;;19.06;81.67
49827;BME280;35715;51.570;6.036;2023-05-09T12:48:53;100970.09;;;19.09;82.37
49827;BME280;35715;51.570;6.036;2023-05-09T12:51:18;100964.75;;;19.06;82.71
49827;BME280;35715;51.570;6.036;2023-05-09T12:53:44;100962.19;;;19.07;82.52
49827;BME280;35715;51.570;6.036;2023-05-09T12:56:16;100959.38;;;19.01;82.93
49827;BME280;35715;51.570;6.036;2023-05-09T12:58:49;100965.81;;;18.85;82.05
49827;BME280;35715;51.570;6.036;2023-05-09T13:01:15;100958.00;;;18.87;82.19
49827;BME280;35715;51.570;6.036;2023-05-09T13:03:41;100958.28;;;18.94;83.00
49827;BME280;35715;51.570;6.036;2023-05-09T13:06:10;100962.53;;;18.92;82.99
49827;BME280;35715;51.570;6.036;2023-05-09T13:08:36;100962.75;;;18.97;82.58
49827;BME280;35715;51.570;6.036;2023-05-09T13:11:02;100955.63;;;18.93;83.24
49827;BME280;35715;51.570;6.036;2023-05-09T13:13:27;100951.00;;;18.86;82.58
49827;BME280;35715;51.570;6.036;2023-05-09T13:15:53;100957.97;;;18.85;83.09
49827;BME280;35715;51.570;6.036;2023-05-09T13:18:18;100948.91;;;18.77;83.45
49827;BME280;35715;51.570;6.036;2023-05-09T13:20:44;100959.84;;;18.67;82.74
49827;BME280;35715;51.570;6.036;2023-05-09T13:23:10;100955.16;;;18.56;83.18
49827;BME280;35715;51.570;6.036;2023-05-09T13:25:35;100945.06;;;18.43;83.48
49827;BME280;35715;51.570;6.036;2023-05-09T13:28:00;100951.47;;;18.29;83.81
49827;BME280;35715;51.570;6.036;2023-05-09T13:30:25;100945.91;;;18.19;85.03
49827;BME280;35715;51.570;6.036;2023-05-09T13:32:51;100943.88;;;18.12;85.18
49827;BME280;35715;51.570;6.036;2023-05-09T13:35:16;100934.81;;;18.02;84.60
49827;BME280;35715;51.570;6.036;2023-05-09T13:37:41;100936.81;;;17.87;84.92
49827;BME280;35715;51.570;6.036;2023-05-09T13:40:07;100936.09;;;17.91;84.61
49827;BME280;35715;51.570;6.036;2023-05-09T13:42:33;100941.19;;;17.88;84.42
49827;BME280;35715;51.570;6.036;2023-05-09T13:44:58;100941.13;;;17.86;84.90
49827;BME280;35715;51.570;6.036;2023-05-09T13:47:24;100924.84;;;17.92;85.24
49827;BME280;35715;51.570;6.036;2023-05-09T13:49:49;100929.31;;;17.95;85.09
49827;BME280;35715;51.570;6.036;2023-05-09T13:52:16;100925.19;;;18.01;85.40
49827;BME280;35715;51.570;6.036;2023-05-09T13:54:41;100924.63;;;18.08;85.83
49827;BME280;35715;51.570;6.036;2023-05-09T13:57:06;100934.28;;;18.11;85.15
49827;BME280;35715;51.570;6.036;2023-05-09T13:59:32;100920.16;;;18.06;84.60